createdAt,value
2022-10-18T00:01:59.731Z,4.05
2022-10-18T00:05:03.701Z,4.55
2022-10-18T00:08:06.444Z,4.18
2022-10-18T00:11:09.536Z,4.30
2022-10-18T00:14:12.282Z,4.70
2022-10-18T00:17:15.236Z,4.12
2022-10-18T00:20:18.013Z,4.20
2022-10-18T00:23:21.084Z,4.65
2022-10-18T00:26:26.326Z,4.78
2022-10-18T00:29:29.326Z,5.10
2022-10-18T00:32:40.201Z,4.28
2022-10-18T00:35:43.347Z,4.10
2022-10-18T00:38:46.799Z,4.35
2022-10-18T00:41:50.902Z,4.27
2022-10-18T00:45:21.378Z,4.82
2022-10-18T00:48:24.782Z,4.20
2022-10-18T00:51:31.243Z,5.03
2022-10-18T00:54:37.308Z,4.80
2022-10-18T00:57:42.345Z,3.92
2022-10-18T01:00:45.531Z,4.82
2022-10-18T01:03:48.687Z,4.57
2022-10-18T01:07:01.703Z,4.53
2022-10-18T01:10:10.546Z,4.85
2022-10-18T01:13:25.595Z,4.90
2022-10-18T01:16:44.719Z,5.15
2022-10-18T01:20:03.821Z,5.40
2022-10-18T01:23:57.576Z,5.25
2022-10-18T01:27:12.791Z,5.10
2022-10-18T01:30:33.610Z,4.70
2022-10-18T01:33:45.633Z,4.93
2022-10-18T01:36:51.071Z,5.55
2022-10-18T01:39:55.836Z,5.25
2022-10-18T01:42:58.579Z,5.70
2022-10-18T01:46:02.174Z,5.30
2022-10-18T01:49:05.329Z,5.53
2022-10-18T01:52:13.298Z,6.25
2022-10-18T01:55:16.270Z,6.45
2022-10-18T01:58:44.801Z,6.00
2022-10-18T02:02:06.971Z,5.80
2022-10-18T02:05:09.896Z,6.62
2022-10-18T02:08:24.880Z,5.80
2022-10-18T02:11:29.859Z,6.47
2022-10-18T02:14:33.361Z,7.10
2022-10-18T02:17:37.754Z,6.15
2022-10-18T02:20:40.481Z,6.50
2022-10-18T02:23:45.757Z,6.85
2022-10-18T02:26:48.489Z,6.70
2022-10-18T02:29:52.171Z,6.60
2022-10-18T02:33:03.622Z,5.80
2022-10-18T02:36:13.925Z,6.50
2022-10-18T02:39:19.648Z,6.28
2022-10-18T02:42:22.663Z,6.07
2022-10-18T02:45:26.278Z,7.03
2022-10-18T02:48:29.323Z,6.60
2022-10-18T02:51:32.189Z,6.70
2022-10-18T02:54:35.195Z,6.07
2022-10-18T02:57:37.935Z,7.07
2022-10-18T03:00:40.910Z,7.10
2022-10-18T03:03:43.628Z,7.25
2022-10-18T03:06:47.919Z,6.70
2022-10-18T03:09:50.677Z,6.87
2022-10-18T03:12:54.680Z,6.78
2022-10-18T03:15:57.423Z,6.43
2022-10-18T03:19:00.436Z,6.75
2022-10-18T03:22:03.184Z,7.25
2022-10-18T03:25:06.354Z,6.78
2022-10-18T03:28:09.126Z,6.93
2022-10-18T03:31:12.119Z,6.85
2022-10-18T03:34:15.906Z,7.20
2022-10-18T03:37:18.962Z,6.30
2022-10-18T03:40:21.853Z,6.70
2022-10-18T03:43:25.128Z,6.70
2022-10-18T03:46:27.991Z,7.07
2022-10-18T03:52:34.739Z,7.18
2022-10-18T03:55:38.271Z,7.32
2022-10-18T03:58:41.126Z,8.82
2022-10-18T04:01:44.556Z,8.45
2022-10-18T04:04:47.761Z,7.25
2022-10-18T04:07:50.862Z,8.73
2022-10-18T04:10:53.948Z,8.07
2022-10-18T04:13:56.809Z,7.78
2022-10-18T04:16:59.809Z,7.07
2022-10-18T04:20:02.530Z,7.32
2022-10-18T04:23:06.723Z,7.43
2022-10-18T04:26:09.545Z,7.93
2022-10-18T04:29:13.609Z,7.28
2022-10-18T04:32:16.314Z,8.25
2022-10-18T04:35:22.706Z,7.65
2022-10-18T04:38:25.434Z,8.60
2022-10-18T04:41:28.389Z,7.68
2022-10-18T04:44:30.951Z,7.93
2022-10-18T04:47:34.289Z,8.50
2022-10-18T04:50:37.219Z,7.87
2022-10-18T04:53:43.118Z,7.90
2022-10-18T04:56:45.820Z,7.22
2022-10-18T04:59:48.851Z,8.70
2022-10-18T05:02:58.987Z,7.72
2022-10-18T05:06:03.136Z,8.95
2022-10-18T05:09:06.293Z,8.52
2022-10-18T05:12:09.605Z,7.40
2022-10-18T05:15:12.345Z,7.78
2022-10-18T05:18:15.463Z,7.65
2022-10-18T05:21:18.538Z,7.55
2022-10-18T05:24:24.142Z,6.97
2022-10-18T05:27:30.155Z,8.05
2022-10-18T05:30:33.331Z,8.02
2022-10-18T05:33:36.427Z,7.70
2022-10-18T05:36:39.408Z,8.60
2022-10-18T05:39:42.249Z,7.12
2022-10-18T05:42:45.280Z,6.62
2022-10-18T05:45:49.431Z,5.97
2022-10-18T05:48:52.409Z,5.80
2022-10-18T05:51:55.181Z,6.20
2022-10-18T05:54:58.208Z,6.62
2022-10-18T05:58:00.948Z,7.22
2022-10-18T06:01:05.607Z,8.02
2022-10-18T06:04:10.871Z,9.50
2022-10-18T06:07:13.822Z,8.10
2022-10-18T06:10:18.108Z,9.10
2022-10-18T06:13:20.870Z,7.05
2022-10-18T06:16:28.546Z,7.07
2022-10-18T06:19:34.663Z,7.68
2022-10-18T06:22:37.687Z,8.07
2022-10-18T06:25:40.376Z,8.10
2022-10-18T06:28:43.471Z,8.80
2022-10-18T06:31:46.323Z,9.23
2022-10-18T06:34:49.300Z,8.32
2022-10-18T06:37:52.177Z,9.23
2022-10-18T06:40:57.739Z,9.63
2022-10-18T06:44:04.007Z,9.23
2022-10-18T06:47:08.169Z,9.77
2022-10-18T06:50:11.769Z,8.98
2022-10-18T06:53:14.756Z,7.75
2022-10-18T06:56:17.470Z,8.60
2022-10-18T06:59:21.639Z,7.75
2022-10-18T07:02:24.394Z,7.70
2022-10-18T07:05:28.475Z,7.55
2022-10-18T07:08:31.653Z,8.60
2022-10-18T07:11:34.807Z,8.52
2022-10-18T07:14:37.548Z,8.77
2022-10-18T07:17:40.591Z,8.93
2022-10-18T07:20:43.355Z,10.52
2022-10-18T07:23:47.265Z,10.65
2022-10-18T07:26:50.392Z,11.95
2022-10-18T07:29:53.444Z,10.90
2022-10-18T07:32:56.464Z,11.20
2022-10-18T07:36:04.871Z,11.00
2022-10-18T07:39:07.912Z,11.68
2022-10-18T07:42:10.934Z,11.48
2022-10-18T07:45:14.777Z,10.55
2022-10-18T07:48:18.008Z,10.98
2022-10-18T07:51:22.241Z,11.30
2022-10-18T07:54:25.234Z,10.57
2022-10-18T07:57:28.018Z,11.45
2022-10-18T08:00:31.079Z,12.32
2022-10-18T08:03:34.840Z,11.30
2022-10-18T08:06:37.557Z,11.15
2022-10-18T08:09:40.633Z,10.98
2022-10-18T08:12:43.422Z,10.45
2022-10-18T08:15:46.588Z,10.55
2022-10-18T08:18:49.467Z,10.60
2022-10-18T08:21:52.507Z,10.30
2022-10-18T08:24:55.200Z,10.25
2022-10-18T08:27:58.849Z,10.15
2022-10-18T08:31:06.039Z,9.20
2022-10-18T08:34:09.949Z,9.45
2022-10-18T08:37:12.684Z,7.90
2022-10-18T08:40:16.107Z,8.10
2022-10-18T08:43:29.194Z,6.87
2022-10-18T08:46:36.385Z,6.50
2022-10-18T08:49:45.632Z,6.32
2022-10-18T08:53:20.185Z,6.95
2022-10-18T08:56:24.593Z,6.20
2022-10-18T08:59:34.407Z,6.78
2022-10-18T09:02:46.459Z,7.10
2022-10-18T09:05:55.611Z,6.68
2022-10-18T09:09:13.583Z,6.28
2022-10-18T09:12:42.939Z,6.10
2022-10-18T09:15:59.918Z,5.78
2022-10-18T09:19:11.810Z,5.55
2022-10-18T09:22:18.648Z,5.75
2022-10-18T09:25:37.885Z,6.43
2022-10-18T09:28:53.288Z,5.72
2022-10-18T09:31:58.957Z,4.87
2022-10-18T09:35:21.153Z,5.12
2022-10-18T09:38:28.329Z,4.50
2022-10-18T09:41:52.269Z,4.62
2022-10-18T09:44:59.947Z,4.65
2022-10-18T09:48:29.548Z,3.60
2022-10-18T09:51:37.784Z,3.90
2022-10-18T09:54:44.428Z,4.40
2022-10-18T09:57:51.350Z,3.87
2022-10-18T10:00:55.600Z,4.53
2022-10-18T10:03:58.716Z,3.85
2022-10-18T10:07:02.827Z,4.43
2022-10-18T10:10:11.232Z,4.32
2022-10-18T10:13:23.188Z,4.60
2022-10-18T10:16:27.172Z,4.87
2022-10-18T10:19:37.592Z,4.75
2022-10-18T10:22:42.050Z,4.72
2022-10-18T10:25:51.807Z,4.57
2022-10-18T10:28:55.152Z,4.85
2022-10-18T10:32:04.655Z,4.90
2022-10-18T10:35:33.957Z,4.47
2022-10-18T10:38:44.590Z,3.75
2022-10-18T10:42:00.109Z,4.40
2022-10-18T10:45:02.883Z,4.87
2022-10-18T10:48:14.923Z,4.40
2022-10-18T10:51:29.562Z,4.40
2022-10-18T10:54:47.550Z,4.53
2022-10-18T10:57:54.247Z,4.20
2022-10-18T11:00:58.080Z,4.30
2022-10-18T11:04:22.187Z,4.55
2022-10-18T11:07:30.450Z,4.10
2022-10-18T11:10:35.204Z,4.50
2022-10-18T11:13:50.037Z,4.47
2022-10-18T11:17:07.738Z,4.57
2022-10-18T11:20:38.370Z,4.53
2022-10-18T11:23:42.813Z,4.53
2022-10-18T11:26:54.661Z,4.32
2022-10-18T11:30:13.770Z,4.47
2022-10-18T11:33:56.220Z,4.62
2022-10-18T11:37:27.182Z,4.53
2022-10-18T11:40:49.981Z,5.03
2022-10-18T11:44:03.570Z,4.70
2022-10-18T11:47:52.274Z,4.70
2022-10-18T11:51:04.570Z,5.03
2022-10-18T11:54:26.996Z,4.55
2022-10-18T11:57:37.953Z,4.32
2022-10-18T12:00:45.980Z,4.20
2022-10-18T12:04:09.127Z,4.32
2022-10-18T12:07:14.208Z,4.20
2022-10-18T12:10:26.318Z,3.85
2022-10-18T12:13:47.051Z,3.72
2022-10-18T12:16:52.365Z,3.95
2022-10-18T12:20:04.861Z,3.90
2022-10-18T12:23:35.268Z,3.90
2022-10-18T12:26:38.183Z,4.03
2022-10-18T12:30:03.508Z,4.07
2022-10-18T12:33:27.191Z,3.70
2022-10-18T12:36:43.919Z,3.80
2022-10-18T12:40:10.251Z,3.47
2022-10-18T12:43:36.981Z,3.47
2022-10-18T12:46:57.625Z,3.55
2022-10-18T12:50:06.855Z,3.83
2022-10-18T12:53:09.571Z,3.53
2022-10-18T12:56:27.966Z,3.90
2022-10-18T12:59:30.623Z,3.87
2022-10-18T13:02:33.977Z,3.83
2022-10-18T13:05:54.673Z,3.87
2022-10-18T13:09:17.189Z,3.37
2022-10-18T13:12:19.817Z,3.20
2022-10-18T13:15:46.328Z,4.05
2022-10-18T13:18:58.957Z,3.72
2022-10-18T13:22:15.297Z,3.60
2022-10-18T13:25:23.701Z,3.45
2022-10-18T13:28:39.789Z,3.45
2022-10-18T13:31:48.810Z,3.62
2022-10-18T13:34:51.879Z,3.90
2022-10-18T13:37:59.915Z,3.75
2022-10-18T13:41:12.850Z,4.30
2022-10-18T13:44:28.842Z,3.53
2022-10-18T13:47:37.157Z,3.75
2022-10-18T13:50:42.128Z,3.67
2022-10-18T13:54:01.120Z,3.40
2022-10-18T13:57:32.252Z,2.97
2022-10-18T14:00:58.763Z,3.55
2022-10-18T14:04:20.579Z,3.70
2022-10-18T14:07:25.756Z,3.50
2022-10-18T14:10:57.262Z,3.30
2022-10-18T14:14:23.238Z,3.35
2022-10-18T14:17:35.948Z,3.25
2022-10-18T14:21:12.175Z,2.87
2022-10-18T14:24:21.115Z,3.35
2022-10-18T14:27:26.671Z,3.65
2022-10-18T14:30:29.681Z,3.78
2022-10-18T14:36:43.638Z,3.83
2022-10-18T14:39:46.771Z,3.58
2022-10-18T14:42:50.728Z,4.10
2022-10-18T14:45:53.543Z,4.25
2022-10-18T14:48:58.950Z,4.20
2022-10-18T14:52:01.842Z,3.87
2022-10-18T14:55:05.295Z,4.20
2022-10-18T14:58:14.510Z,3.77
2022-10-18T15:01:18.753Z,4.10
2022-10-18T15:04:27.704Z,4.55
2022-10-18T15:07:32.610Z,4.78
2022-10-18T15:10:35.511Z,3.95
2022-10-18T15:13:46.598Z,4.32
2022-10-18T15:16:50.738Z,3.92
2022-10-18T15:20:01.808Z,4.20
2022-10-18T15:23:32.646Z,3.97
2022-10-18T15:26:35.656Z,4.35
2022-10-18T15:29:38.414Z,5.32
2022-10-18T15:33:09.878Z,5.30
2022-10-18T15:36:24.992Z,4.40
2022-10-18T15:39:32.296Z,4.37
2022-10-18T15:42:37.428Z,4.40
2022-10-18T15:45:49.139Z,4.37
2022-10-18T15:48:51.843Z,4.32
2022-10-18T15:52:15.840Z,4.72
2022-10-18T15:55:30.706Z,4.47
2022-10-18T15:58:39.172Z,4.93
2022-10-18T16:01:43.858Z,4.15
2022-10-18T16:04:47.839Z,4.55
2022-10-18T16:07:53.656Z,4.45
2022-10-18T16:10:58.903Z,4.10
2022-10-18T16:14:01.791Z,4.30
2022-10-18T16:17:06.410Z,4.47
2022-10-18T16:20:19.530Z,4.68
2022-10-18T16:23:26.270Z,4.40
2022-10-18T16:26:29.551Z,4.80
2022-10-18T16:29:35.424Z,4.70
2022-10-18T16:32:38.204Z,5.10
2022-10-18T16:35:41.264Z,4.78
2022-10-18T16:38:44.347Z,4.80
2022-10-18T16:41:51.787Z,5.35
2022-10-18T16:44:55.143Z,5.35
2022-10-18T16:47:58.389Z,5.20
2022-10-18T16:51:01.415Z,4.72
2022-10-18T16:54:05.555Z,4.40
2022-10-18T16:57:11.915Z,4.05
2022-10-18T17:00:22.172Z,4.22
2022-10-18T17:03:25.810Z,4.25
2022-10-18T17:06:30.445Z,4.00
2022-10-18T17:09:35.501Z,4.45
2022-10-18T17:12:38.910Z,4.87
2022-10-18T17:15:45.000Z,3.95
2022-10-18T17:18:48.812Z,4.32
2022-10-18T17:21:51.853Z,12.10
2022-10-18T17:24:55.202Z,17.30
2022-10-18T17:27:58.445Z,14.43
2022-10-18T17:31:03.169Z,8.52
2022-10-18T17:34:06.892Z,6.07
2022-10-18T17:37:10.321Z,5.35
2022-10-18T17:40:13.938Z,5.53
2022-10-18T17:43:17.559Z,4.78
2022-10-18T17:46:21.507Z,4.60
2022-10-18T17:49:24.991Z,4.50
2022-10-18T17:52:27.985Z,4.40
2022-10-18T17:55:31.701Z,4.85
2022-10-18T17:58:35.720Z,4.65
2022-10-18T18:01:39.571Z,4.57
2022-10-18T18:04:43.065Z,4.00
2022-10-18T18:07:46.980Z,4.45
2022-10-18T18:10:54.967Z,5.90
2022-10-18T18:13:58.790Z,4.05
2022-10-18T18:17:02.574Z,4.43
2022-10-18T18:20:06.541Z,4.43
2022-10-18T18:23:10.704Z,35.80
2022-10-18T18:26:14.812Z,105.63
2022-10-18T18:29:23.559Z,37.92
2022-10-18T18:32:27.309Z,10.45
2022-10-18T18:35:31.114Z,5.57
2022-10-18T18:38:35.929Z,5.37
2022-10-18T18:41:39.932Z,7.37
2022-10-18T18:44:46.311Z,7.53
2022-10-18T18:47:51.138Z,6.95
2022-10-18T18:50:54.584Z,6.50
2022-10-18T18:53:58.259Z,6.65
2022-10-18T18:57:05.650Z,7.80
2022-10-18T19:00:10.588Z,5.00
2022-10-18T19:03:16.031Z,5.87
2022-10-18T19:06:40.945Z,4.97
2022-10-18T19:09:48.703Z,7.97
2022-10-18T19:12:52.207Z,8.07
2022-10-18T19:16:38.214Z,5.87
2022-10-18T19:22:46.090Z,6.07
2022-10-18T19:25:49.798Z,5.50
2022-10-18T19:28:53.608Z,5.25
2022-10-18T19:31:59.725Z,6.05
2022-10-18T19:35:03.047Z,5.32
2022-10-18T19:38:06.620Z,6.18
2022-10-18T19:41:09.955Z,5.12
2022-10-18T19:44:13.948Z,10.63
2022-10-18T19:47:17.281Z,9.65
2022-10-18T19:50:20.918Z,10.00
2022-10-18T19:53:25.144Z,8.73
2022-10-18T19:56:31.013Z,8.10
2022-10-18T19:59:36.138Z,9.45
2022-10-18T20:02:39.322Z,6.75
2022-10-18T20:05:42.704Z,23.67
2022-10-18T20:08:45.495Z,21.23
2022-10-18T20:11:49.798Z,11.45
2022-10-18T20:14:52.786Z,11.43
2022-10-18T20:17:56.863Z,9.18
2022-10-18T20:21:00.024Z,18.73
2022-10-18T20:24:06.686Z,13.62
2022-10-18T20:27:09.621Z,13.95
2022-10-18T20:30:12.668Z,11.55
2022-10-18T20:33:15.714Z,9.88
2022-10-18T20:36:20.551Z,19.23
2022-10-18T20:39:23.967Z,17.33
2022-10-18T20:42:27.040Z,11.35
2022-10-18T20:45:29.742Z,16.20
2022-10-18T20:48:33.704Z,24.25
2022-10-18T20:51:36.526Z,12.00
2022-10-18T20:54:39.829Z,10.25
2022-10-18T20:57:43.177Z,8.40
2022-10-18T21:00:46.406Z,6.05
2022-10-18T21:03:50.381Z,5.70
2022-10-18T21:06:53.461Z,6.83
2022-10-18T21:09:56.342Z,11.95
2022-10-18T21:12:59.348Z,10.63
2022-10-18T21:16:03.262Z,9.82
2022-10-18T21:19:08.694Z,11.43
2022-10-18T21:22:11.500Z,10.40
2022-10-18T21:25:14.620Z,7.87
2022-10-18T21:28:17.443Z,6.47
2022-10-18T21:31:23.019Z,11.63
2022-10-18T21:34:26.443Z,11.02
2022-10-18T21:37:29.803Z,10.82
2022-10-18T21:40:35.515Z,11.75
2022-10-18T21:43:44.325Z,11.75
2022-10-18T21:46:47.133Z,12.02
2022-10-18T21:49:50.152Z,11.40
2022-10-18T21:52:53.128Z,12.00
2022-10-18T21:55:56.113Z,11.15
2022-10-18T21:58:59.536Z,9.23
2022-10-18T22:02:03.094Z,8.90
2022-10-18T22:05:08.377Z,8.23
2022-10-18T22:08:13.996Z,7.65
2022-10-18T22:11:18.800Z,8.88
2022-10-18T22:14:22.014Z,10.45
2022-10-18T22:17:25.078Z,8.90
2022-10-18T22:20:28.111Z,7.90
2022-10-18T22:23:42.725Z,7.97
2022-10-18T22:26:46.181Z,8.20
2022-10-18T22:29:49.288Z,8.48
2022-10-18T22:32:52.053Z,8.40
2022-10-18T22:35:55.104Z,10.15
2022-10-18T22:38:57.903Z,9.85
2022-10-18T22:42:00.924Z,10.48
2022-10-18T22:45:03.906Z,8.95
2022-10-18T22:48:08.239Z,8.35
2022-10-18T22:51:11.900Z,6.05
2022-10-18T22:54:15.195Z,6.53
2022-10-18T22:57:17.917Z,7.47
2022-10-18T23:00:20.910Z,12.88
2022-10-18T23:03:23.660Z,16.17
2022-10-18T23:06:32.204Z,12.18
2022-10-18T23:09:35.036Z,12.25
2022-10-18T23:12:38.080Z,11.50
2022-10-18T23:15:40.833Z,9.93
2022-10-18T23:18:43.959Z,11.27
2022-10-18T23:21:46.810Z,11.27
2022-10-18T23:24:49.928Z,12.77
2022-10-18T23:27:52.690Z,13.13
2022-10-18T23:30:56.113Z,10.98
2022-10-18T23:34:03.470Z,9.18
2022-10-18T23:37:07.335Z,9.00
2022-10-18T23:40:10.446Z,7.90
2022-10-18T23:43:14.239Z,7.35
2022-10-18T23:46:17.819Z,6.65
2022-10-18T23:49:20.851Z,6.68
2022-10-18T23:52:24.922Z,7.32
2022-10-18T23:55:27.926Z,6.87
2022-10-18T23:58:31.902Z,6.43
